createdAt,value
2023-08-12T00:00:39.486Z,7.10
2023-08-12T00:04:40.891Z,7.00
2023-08-12T00:08:42.348Z,7.70
2023-08-12T00:12:44.053Z,8.57
2023-08-12T00:16:45.351Z,7.90
2023-08-12T00:20:46.688Z,7.10
2023-08-12T00:24:48.000Z,6.43
2023-08-12T00:28:50.517Z,7.87
2023-08-12T00:32:51.901Z,8.77
2023-08-12T00:36:53.559Z,6.83
2023-08-12T00:40:54.811Z,9.07
2023-08-12T00:44:56.232Z,11.17
2023-08-12T00:48:57.562Z,8.33
2023-08-12T00:52:59.710Z,8.50
2023-08-12T00:57:01.050Z,8.70
2023-08-12T01:01:02.417Z,7.60
2023-08-12T01:05:04.276Z,7.10
2023-08-12T01:09:06.380Z,9.43
2023-08-12T01:13:14.437Z,11.00
2023-08-12T01:17:16.442Z,8.10
2023-08-12T01:21:17.972Z,8.20
2023-08-12T01:25:19.447Z,9.00
2023-08-12T01:29:20.974Z,7.07
2023-08-12T01:33:32.028Z,7.33
2023-08-12T01:37:35.754Z,8.47
2023-08-12T01:41:37.721Z,8.70
2023-08-12T01:45:39.216Z,10.03
2023-08-12T01:49:40.533Z,7.13
2023-08-12T01:53:41.901Z,6.43
2023-08-12T01:57:43.222Z,7.40
2023-08-12T02:01:44.681Z,7.40
2023-08-12T02:05:46.268Z,9.17
2023-08-12T02:09:47.898Z,8.30
2023-08-12T02:13:49.266Z,10.30
2023-08-12T02:17:50.665Z,8.80
2023-08-12T02:21:51.981Z,7.13
2023-08-12T02:25:54.742Z,6.70
2023-08-12T02:29:56.072Z,8.43
2023-08-12T02:33:57.425Z,7.17
2023-08-12T02:37:58.794Z,6.50
2023-08-12T02:42:00.105Z,7.17
2023-08-12T02:46:01.553Z,6.43
2023-08-12T02:50:03.443Z,8.73
2023-08-12T02:54:05.107Z,8.23
2023-08-12T02:58:06.596Z,13.70
2023-08-12T03:02:08.686Z,7.80
2023-08-12T03:06:10.238Z,7.83
2023-08-12T03:10:11.923Z,8.10
2023-08-12T03:14:13.520Z,8.20
2023-08-12T03:18:14.860Z,10.60
2023-08-12T03:22:16.177Z,9.63
2023-08-12T03:26:17.492Z,12.73
2023-08-12T03:30:18.827Z,10.90
2023-08-12T03:34:20.156Z,10.93
2023-08-12T03:38:21.473Z,12.77
2023-08-12T03:42:22.810Z,13.40
2023-08-12T03:46:24.247Z,14.07
2023-08-12T03:50:25.643Z,11.00
2023-08-12T03:54:26.945Z,15.20
2023-08-12T03:58:28.260Z,14.27
2023-08-12T04:02:29.575Z,13.97
2023-08-12T04:06:30.891Z,12.53
2023-08-12T04:10:32.349Z,10.37
2023-08-12T04:14:33.650Z,12.43
2023-08-12T04:18:35.021Z,14.17
2023-08-12T04:22:36.425Z,16.63
2023-08-12T04:26:37.729Z,15.37
2023-08-12T04:30:44.384Z,13.40
2023-08-12T04:34:46.597Z,14.57
2023-08-12T04:38:47.929Z,15.37
2023-08-12T04:42:49.238Z,16.70
2023-08-12T04:46:50.768Z,15.80
2023-08-12T04:50:52.494Z,15.40
2023-08-12T04:54:54.816Z,15.17
2023-08-12T04:58:56.783Z,16.63
2023-08-12T05:02:58.909Z,17.87
2023-08-12T05:07:00.494Z,15.07
2023-08-12T05:11:01.810Z,14.50
2023-08-12T05:15:03.288Z,14.60
2023-08-12T05:19:04.607Z,13.77
2023-08-12T05:23:05.925Z,13.63
2023-08-12T05:27:07.445Z,15.50
2023-08-12T05:31:08.762Z,14.20
2023-08-12T05:35:10.091Z,15.27
2023-08-12T05:39:11.389Z,13.37
2023-08-12T05:43:13.338Z,14.77
2023-08-12T05:47:15.072Z,15.10
2023-08-12T05:51:16.391Z,14.10
2023-08-12T05:55:17.824Z,10.57
2023-08-12T05:59:19.157Z,12.60
2023-08-12T06:03:20.475Z,12.77
2023-08-12T06:07:23.489Z,13.80
2023-08-12T06:11:24.821Z,12.33
2023-08-12T06:15:26.306Z,11.80
2023-08-12T06:19:27.639Z,10.83
2023-08-12T06:23:30.237Z,13.83
2023-08-12T06:27:31.555Z,12.90
2023-08-12T06:31:32.966Z,12.67
2023-08-12T06:35:34.317Z,12.83
2023-08-12T06:39:35.647Z,13.53
2023-08-12T06:43:36.979Z,14.57
2023-08-12T06:47:38.355Z,11.50
2023-08-12T06:51:39.640Z,11.77
2023-08-12T06:55:46.223Z,11.30
2023-08-12T06:59:47.561Z,13.10
2023-08-12T07:03:49.034Z,11.40
2023-08-12T07:07:50.345Z,11.90
2023-08-12T07:11:51.674Z,12.27
2023-08-12T07:15:53.080Z,12.83
2023-08-12T07:19:54.379Z,9.57
2023-08-12T07:27:59.194Z,10.70
2023-08-12T07:32:00.594Z,10.50
2023-08-12T07:36:02.653Z,10.53
2023-08-12T07:40:04.542Z,9.93
2023-08-12T07:44:06.043Z,9.43
2023-08-12T07:48:07.407Z,8.63
2023-08-12T07:52:08.826Z,8.20
2023-08-12T07:56:10.769Z,8.80
2023-08-12T08:00:12.685Z,9.80
2023-08-12T08:04:14.019Z,9.37
2023-08-12T08:08:15.501Z,8.53
2023-08-12T08:12:17.181Z,8.50
2023-08-12T08:16:18.766Z,11.20
2023-08-12T08:20:20.306Z,11.77
2023-08-12T08:24:21.674Z,9.30
2023-08-12T08:28:23.700Z,10.23
2023-08-12T08:32:25.453Z,7.97
2023-08-12T08:36:26.801Z,8.10
2023-08-12T08:40:28.354Z,9.10
2023-08-12T08:44:33.430Z,9.53
2023-08-12T08:48:38.936Z,8.70
2023-08-12T08:52:39.775Z,9.43
2023-08-12T08:56:45.184Z,9.23
2023-08-12T09:00:45.706Z,11.03
2023-08-12T09:04:48.017Z,9.00
2023-08-12T09:08:51.988Z,9.37
2023-08-12T09:12:55.840Z,11.80
2023-08-12T09:16:58.114Z,9.73
2023-08-12T09:20:59.551Z,9.50
2023-08-12T09:25:04.396Z,11.70
2023-08-12T09:29:06.105Z,9.37
2023-08-12T09:33:08.776Z,9.33
2023-08-12T09:37:10.473Z,9.40
2023-08-12T09:41:11.818Z,8.77
2023-08-12T09:45:13.167Z,7.93
2023-08-12T09:49:14.703Z,7.73
2023-08-12T09:53:16.081Z,7.63
2023-08-12T09:57:19.714Z,7.60
2023-08-12T10:01:21.764Z,9.17
2023-08-12T10:05:26.975Z,9.80
2023-08-12T10:09:28.630Z,8.40
2023-08-12T10:13:30.395Z,8.07
2023-08-12T10:21:35.398Z,9.30
2023-08-12T10:25:39.951Z,10.57
2023-08-12T10:29:43.154Z,9.90
2023-08-12T10:33:44.941Z,11.23
2023-08-12T10:37:49.739Z,12.03
2023-08-12T10:41:54.949Z,12.97
2023-08-12T10:45:57.390Z,14.60
2023-08-12T10:49:59.102Z,7.57
2023-08-12T10:54:31.569Z,9.00
2023-08-12T10:58:45.991Z,8.77
2023-08-12T11:02:50.699Z,9.40
2023-08-12T11:06:52.174Z,8.83
2023-08-12T11:10:56.439Z,7.60
2023-08-12T11:15:01.413Z,6.80
2023-08-12T11:19:03.778Z,7.47
2023-08-12T11:23:06.490Z,6.50
2023-08-12T11:27:11.419Z,6.40
2023-08-12T11:31:12.979Z,5.67
2023-08-12T11:35:16.247Z,5.60
2023-08-12T11:39:18.302Z,5.03
2023-08-12T11:43:22.276Z,6.10
2023-08-12T11:47:23.895Z,6.90
2023-08-12T11:51:25.312Z,6.50
2023-08-12T11:55:26.910Z,7.20
2023-08-12T11:59:28.201Z,9.07
2023-08-12T12:03:30.712Z,5.33
2023-08-12T12:07:32.129Z,6.90
2023-08-12T12:11:33.589Z,7.40
2023-08-12T12:15:44.473Z,5.13
2023-08-12T12:19:45.825Z,5.83
2023-08-12T12:23:47.154Z,5.83
2023-08-12T12:27:48.569Z,8.13
2023-08-12T12:31:49.878Z,6.70
2023-08-12T12:35:57.668Z,5.73
2023-08-12T12:39:54.574Z,4.57
2023-08-12T12:43:55.925Z,8.67
2023-08-12T12:47:57.255Z,5.23
2023-08-12T12:51:58.586Z,5.13
2023-08-12T12:56:02.207Z,5.83
2023-08-12T13:00:06.253Z,4.60
2023-08-12T13:04:08.678Z,5.40
2023-08-12T13:08:10.040Z,4.60
2023-08-12T13:12:11.627Z,4.93
2023-08-12T13:16:13.229Z,4.80
2023-08-12T13:20:15.184Z,6.43
2023-08-12T13:24:16.937Z,5.57
2023-08-12T13:28:18.567Z,4.77
2023-08-12T13:32:19.886Z,5.30
2023-08-12T13:36:21.267Z,4.53
2023-08-12T13:40:22.765Z,4.37
2023-08-12T13:44:24.590Z,8.13
2023-08-12T13:48:25.924Z,4.70
2023-08-12T13:52:27.269Z,5.10
2023-08-12T13:56:30.131Z,4.60
2023-08-12T14:00:31.731Z,4.20
2023-08-12T14:04:33.035Z,5.70
2023-08-12T14:08:34.364Z,3.90
2023-08-12T14:12:35.722Z,4.57
2023-08-12T14:16:37.360Z,6.40
2023-08-12T14:20:38.706Z,8.07
2023-08-12T14:24:40.007Z,4.63
2023-08-12T14:28:41.354Z,6.53
2023-08-12T14:32:42.757Z,4.87
2023-08-12T14:36:44.052Z,4.30
2023-08-12T14:40:48.969Z,5.33
2023-08-12T14:44:50.456Z,4.10
2023-08-12T14:48:53.710Z,4.90
2023-08-12T14:52:56.032Z,5.37
2023-08-12T14:56:57.316Z,4.60
2023-08-12T15:01:00.626Z,4.47
2023-08-12T15:05:02.086Z,3.60
2023-08-12T15:09:03.506Z,4.40
2023-08-12T15:13:04.988Z,4.53
2023-08-12T15:17:06.428Z,4.60
2023-08-12T15:21:07.846Z,4.83
2023-08-12T15:25:09.437Z,5.47
2023-08-12T15:29:10.711Z,4.10
2023-08-12T15:33:12.089Z,5.03
2023-08-12T15:37:13.597Z,4.87
2023-08-12T15:41:16.754Z,3.70
2023-08-12T15:45:18.353Z,4.33
2023-08-12T15:49:19.693Z,5.57
2023-08-12T15:53:21.025Z,3.93
2023-08-12T15:57:22.404Z,5.10
2023-08-12T16:01:23.864Z,4.30
2023-08-12T16:05:25.140Z,3.60
2023-08-12T16:09:26.504Z,5.13
2023-08-12T16:13:28.019Z,5.80
2023-08-12T16:17:29.374Z,4.47
2023-08-12T16:21:31.051Z,4.70
2023-08-12T16:25:32.430Z,3.73
2023-08-12T16:29:33.926Z,4.17
2023-08-12T16:33:35.258Z,4.53
2023-08-12T16:37:36.622Z,4.60
2023-08-12T16:41:38.002Z,5.47
2023-08-12T16:45:39.348Z,4.50
2023-08-12T16:49:40.632Z,4.27
2023-08-12T16:53:41.972Z,4.77
2023-08-12T16:57:43.482Z,4.30
2023-08-12T17:01:46.772Z,6.23
2023-08-12T17:05:48.087Z,7.00
2023-08-12T17:09:49.868Z,5.57
2023-08-12T17:13:51.650Z,4.97
2023-08-12T17:17:52.981Z,6.27
2023-08-12T17:21:54.830Z,5.60
2023-08-12T17:25:56.973Z,6.60
2023-08-12T17:29:58.517Z,5.03
2023-08-12T17:33:59.838Z,5.63
2023-08-12T17:38:01.170Z,5.60
2023-08-12T17:42:02.512Z,6.43
2023-08-12T17:46:03.868Z,6.37
2023-08-12T17:50:08.707Z,6.40
2023-08-12T17:54:10.040Z,5.23
2023-08-12T17:58:11.410Z,6.23
2023-08-12T18:02:12.957Z,6.47
2023-08-12T18:06:14.514Z,8.13
2023-08-12T18:10:16.033Z,9.80
2023-08-12T18:14:17.557Z,7.60
2023-08-12T18:18:18.894Z,6.10
2023-08-12T18:22:20.217Z,6.53
2023-08-12T18:26:21.540Z,6.50
2023-08-12T18:30:23.007Z,7.10
2023-08-12T18:34:24.527Z,7.90
2023-08-12T18:38:25.850Z,5.80
2023-08-12T18:42:27.394Z,8.03
2023-08-12T18:46:28.802Z,5.70
2023-08-12T18:50:30.173Z,8.63
2023-08-12T18:54:31.516Z,5.83
2023-08-12T18:58:32.883Z,6.63
2023-08-12T19:02:34.841Z,8.40
2023-08-12T19:06:36.282Z,6.87
2023-08-12T19:10:42.800Z,7.90
2023-08-12T19:14:45.603Z,8.07
2023-08-12T19:18:47.003Z,8.87
2023-08-12T19:22:48.698Z,5.20
2023-08-12T19:26:50.178Z,5.80
2023-08-12T19:30:51.770Z,5.00
2023-08-12T19:34:53.172Z,6.37
2023-08-12T19:38:54.601Z,5.30
2023-08-12T19:42:56.022Z,5.33
2023-08-12T19:46:57.614Z,5.47
2023-08-12T19:50:59.048Z,5.60
2023-08-12T19:55:00.768Z,7.80
2023-08-12T19:59:02.195Z,5.40
2023-08-12T20:03:04.227Z,4.30
2023-08-12T20:07:06.018Z,4.33
2023-08-12T20:11:07.709Z,6.27
2023-08-12T20:15:10.333Z,4.43
2023-08-12T20:19:11.822Z,6.67
2023-08-12T20:23:13.853Z,6.03
2023-08-12T20:27:15.729Z,4.40
2023-08-12T20:31:18.233Z,4.03
2023-08-12T20:35:19.798Z,4.73
2023-08-12T20:39:21.919Z,6.30
2023-08-12T20:43:24.839Z,4.53
2023-08-12T20:47:26.685Z,4.70
2023-08-12T20:51:28.289Z,5.10
2023-08-12T20:55:29.698Z,4.13
2023-08-12T20:59:31.233Z,5.80
2023-08-12T21:03:32.766Z,5.20
2023-08-12T21:07:34.335Z,4.73
2023-08-12T21:11:35.833Z,6.53
2023-08-12T21:15:37.329Z,6.67
2023-08-12T21:19:39.004Z,6.93
2023-08-12T21:23:40.621Z,5.80
2023-08-12T21:27:42.375Z,6.03
2023-08-12T21:31:43.686Z,7.77
2023-08-12T21:35:45.051Z,6.97
2023-08-12T21:39:46.415Z,8.00
2023-08-12T21:43:47.912Z,5.50
2023-08-12T21:47:49.381Z,8.50
2023-08-12T21:51:50.854Z,7.10
2023-08-12T21:55:52.373Z,4.70
2023-08-12T21:59:54.445Z,5.20
2023-08-12T22:03:56.059Z,4.40
2023-08-12T22:07:57.405Z,7.30
2023-08-12T22:11:58.977Z,6.80
2023-08-12T22:16:00.343Z,6.70
2023-08-12T22:20:04.821Z,7.07
2023-08-12T22:24:06.739Z,9.17
2023-08-12T22:28:08.048Z,8.73
2023-08-12T22:32:10.293Z,5.27
2023-08-12T22:36:11.728Z,6.50
2023-08-12T22:40:13.023Z,4.90
2023-08-12T22:44:14.483Z,11.17
2023-08-12T22:48:15.781Z,6.70
2023-08-12T22:52:17.629Z,5.27
2023-08-12T22:56:18.941Z,6.10
2023-08-12T23:00:20.298Z,5.40
2023-08-12T23:04:21.576Z,9.67
2023-08-12T23:08:22.928Z,5.47
2023-08-12T23:12:25.101Z,6.57
2023-08-12T23:16:28.912Z,6.20
2023-08-12T23:20:30.347Z,5.27
2023-08-12T23:24:31.659Z,6.43
2023-08-12T23:28:33.085Z,8.07
2023-08-12T23:32:34.448Z,6.37
2023-08-12T23:36:35.952Z,6.93
2023-08-12T23:40:37.286Z,10.50
2023-08-12T23:44:38.598Z,6.20
2023-08-12T23:48:39.940Z,7.27
2023-08-12T23:52:41.236Z,8.60
2023-08-12T23:56:42.683Z,8.97
